Time;durP1;ratioP1;P1;durP2;ratioP2;P2;SDS_P1;SDS_P2;PMS_P1;PMS_P2;Temp;Humidity;BMP_temperature;BMP_pressure;BME280_temperature;BME280_humidity;BME280_pressure;Samples;Min_cycle;Max_cycle;Signal;HPM_P1;HPM_P2
2022/05/26 00:01:08;;;;;;;6.93;0.30;;;23.50;81.90;;;;;;5080831;28;20226;-80
2022/05/26 00:03:39;;;;;;;0.40;0.20;;;23.50;81.40;;;;;;5080097;28;20722;-80
2022/05/26 00:06:07;;;;;;;1.95;0.25;;;23.50;81.50;;;;;;5080863;28;20219;-80
2022/05/26 00:08:34;;;;;;;1.02;0.30;;;23.50;81.70;;;;;;5080187;28;20199;-80
2022/05/26 00:11:02;;;;;;;2.58;0.40;;;23.50;81.90;;;;;;5080459;28;20200;-80
2022/05/26 00:13:28;;;;;;;1.45;0.30;;;23.50;82.00;;;;;;5081902;28;20283;-80
2022/05/26 00:15:55;;;;;;;2.58;0.30;;;23.50;82.20;;;;;;5082354;28;20227;-80
2022/05/26 00:18:22;;;;;;;1.73;0.35;;;23.50;82.30;;;;;;5081434;28;20729;-80
2022/05/26 00:20:50;;;;;;;0.90;0.30;;;23.50;82.40;;;;;;5080697;28;20206;-80
2022/05/26 00:23:17;;;;;;;0.57;0.10;;;23.50;82.50;;;;;;5080939;28;20243;-80
2022/05/26 00:25:44;;;;;;;0.40;0.32;;;23.50;82.60;;;;;;5081633;28;20210;-80
2022/05/26 00:28:11;;;;;;;8.00;0.30;;;23.50;82.80;;;;;;5081374;28;20226;-80
2022/05/26 00:30:38;;;;;;;0.70;0.45;;;23.50;82.90;;;;;;5080719;28;20199;-80
2022/05/26 00:33:07;;;;;;;0.88;0.20;;;23.50;83.00;;;;;;5080741;28;20233;-80
2022/05/26 00:35:34;;;;;;;0.20;0.20;;;23.50;83.30;;;;;;5079850;28;20257;-80
2022/05/26 00:38:04;;;;;;;0.17;0.17;;;23.50;83.20;;;;;;5080091;28;20231;-80
2022/05/26 00:40:31;;;;;;;0.20;0.20;;;23.50;83.20;;;;;;5081332;28;20206;-80
2022/05/26 00:42:59;;;;;;;0.35;0.20;;;23.50;83.20;;;;;;5080158;28;20269;-80
2022/05/26 00:45:33;;;;;;;0.47;0.20;;;23.50;83.20;;;;;;5079635;28;20223;-80
2022/05/26 00:48:01;;;;;;;1.13;0.20;;;23.50;83.20;;;;;;5080169;28;20279;-80
2022/05/26 00:50:32;;;;;;;0.32;0.20;;;23.50;83.20;;;;;;5079772;28;20210;-80
2022/05/26 00:53:13;;;;;;;0.30;0.10;;;23.50;83.60;;;;;;5079569;28;20690;-80
2022/05/26 00:56:01;;;;;;;2.08;0.30;;;23.50;83.70;;;;;;5080465;28;20283;-80
2022/05/26 00:58:34;;;;;;;0.20;0.20;;;23.50;83.60;;;;;;5080746;28;20282;-80
2022/05/26 01:01:03;;;;;;;0.20;0.20;;;23.50;84.00;;;;;;5080725;28;20218;-80
2022/05/26 01:03:33;;;;;;;0.15;0.10;;;23.50;84.10;;;;;;5079972;28;20236;-80
2022/05/26 01:06:05;;;;;;;0.22;0.20;;;23.50;84.10;;;;;;5080299;28;20275;-79
2022/05/26 01:08:37;;;;;;;2.58;0.30;;;23.50;84.20;;;;;;5080592;28;20251;-79
2022/05/26 01:11:07;;;;;;;0.30;0.20;;;23.50;84.30;;;;;;5081415;28;20282;-79
2022/05/26 01:13:39;;;;;;;0.20;0.20;;;23.50;84.50;;;;;;5082621;28;20227;-79
2022/05/26 01:16:12;;;;;;;0.60;0.28;;;23.50;84.70;;;;;;5080854;28;20270;-79
2022/05/26 01:18:44;;;;;;;2.22;0.20;;;23.40;84.70;;;;;;5080378;28;20279;-79
2022/05/26 01:21:17;;;;;;;0.95;0.20;;;23.50;84.90;;;;;;5081470;28;20214;-79
2022/05/26 01:24:13;;;;;;;0.20;0.20;;;23.50;85.00;;;;;;5080361;28;20298;-79
2022/05/26 01:27:25;;;;;;;0.43;0.20;;;23.50;84.90;;;;;;5080282;28;20200;-79
2022/05/26 01:30:15;;;;;;;2.20;0.22;;;23.50;85.10;;;;;;5036536;28;20292;-79
2022/05/26 01:33:06;;;;;;;2.30;0.20;;;23.50;85.30;;;;;;5075407;28;20314;-79
2022/05/26 01:35:38;;;;;;;3.95;0.22;;;23.40;85.50;;;;;;5079434;28;20278;-79
2022/05/26 01:38:17;;;;;;;1.48;0.20;;;23.40;85.70;;;;;;5079394;28;20267;-80
2022/05/26 01:40:52;;;;;;;0.10;0.10;;;23.50;85.80;;;;;;5079530;28;20207;-80
2022/05/26 01:43:28;;;;;;;1.55;0.20;;;23.40;85.70;;;;;;5079124;28;20222;-80
2022/05/26 01:45:59;;;;;;;0.35;0.30;;;23.40;85.80;;;;;;5079323;28;20274;-80
2022/05/26 01:48:30;;;;;;;2.83;0.68;;;23.40;85.90;;;;;;5078828;28;20184;-80
2022/05/26 01:51:01;;;;;;;2.72;0.73;;;23.40;86.00;;;;;;5078993;28;20180;-80
2022/05/26 01:53:32;;;;;;;4.63;0.30;;;23.40;86.20;;;;;;5078872;28;20222;-80
2022/05/26 01:56:06;;;;;;;1.65;0.20;;;23.40;86.20;;;;;;5079156;28;20621;-80
2022/05/26 01:58:37;;;;;;;1.75;0.75;;;23.40;86.30;;;;;;5076681;28;20192;-80
2022/05/26 02:01:09;;;;;;;0.77;0.20;;;23.40;86.40;;;;;;5075982;28;20183;-79
2022/05/26 02:03:39;;;;;;;0.40;0.30;;;23.40;86.50;;;;;;5075601;28;20230;-79
2022/05/26 02:06:12;;;;;;;0.13;0.13;;;23.40;86.60;;;;;;5076361;28;20184;-79
2022/05/26 02:08:43;;;;;;;0.13;0.13;;;23.40;86.60;;;;;;5076289;28;20603;-79
2022/05/26 02:11:14;;;;;;;4.35;0.60;;;23.40;86.80;;;;;;5075764;28;20183;-79
2022/05/26 02:13:48;;;;;;;12.05;1.35;;;23.40;86.90;;;;;;5075002;28;20223;-79
2022/05/26 02:16:19;;;;;;;0.80;0.20;;;23.40;87.10;;;;;;5075919;28;20180;-79
2022/05/26 02:18:54;;;;;;;2.38;0.20;;;23.40;87.90;;;;;;5076055;28;20609;-79
2022/05/26 02:21:29;;;;;;;2.17;0.40;;;23.50;87.40;;;;;;5075647;28;20713;-79
2022/05/26 02:24:03;;;;;;;2.15;0.20;;;23.40;87.40;;;;;;5075651;28;20254;-79
2022/05/26 02:26:32;;;;;;;0.32;0.25;;;23.40;87.50;;;;;;5076164;28;20188;-79
2022/05/26 02:31:44;;;;;;;0.20;0.20;;;23.40;87.70;;;;;;5075489;28;20194;-79
2022/05/26 02:34:13;;;;;;;0.20;0.20;;;23.40;87.80;;;;;;5075742;28;20223;-79
2022/05/26 02:36:43;;;;;;;0.10;0.10;;;23.40;88.10;;;;;;5075932;28;20226;-79
2022/05/26 02:39:10;;;;;;;2.30;0.32;;;23.40;88.60;;;;;;5075525;28;20199;-79
2022/05/26 02:41:37;;;;;;;0.85;0.20;;;23.40;87.90;;;;;;5075288;28;20717;-79
2022/05/26 02:44:06;;;;;;;0.63;0.40;;;23.40;88.00;;;;;;5075272;28;20215;-79
2022/05/26 02:46:52;;;;;;;0.20;0.20;;;23.40;88.10;;;;;;5075634;28;20233;-79
2022/05/26 02:49:36;;;;;;;1.10;0.30;;;23.40;88.00;;;;;;5075397;28;20187;-79
2022/05/26 02:52:18;;;;;;;0.73;0.20;;;23.40;88.90;;;;;;5075336;28;20350;-79
2022/05/26 02:54:54;;;;;;;0.32;0.20;;;23.40;88.30;;;;;;5075243;28;20183;-79
2022/05/26 02:57:26;;;;;;;0.52;0.20;;;23.40;88.60;;;;;;5075260;28;20274;-79
2022/05/26 03:00:02;;;;;;;0.25;0.10;;;23.40;88.80;;;;;;5075135;28;20247;-79
2022/05/26 03:02:36;;;;;;;0.20;0.20;;;23.40;88.60;;;;;;5074704;28;20218;-80
2022/05/26 03:05:08;;;;;;;0.20;0.20;;;23.40;88.80;;;;;;5073973;28;20281;-78
2022/05/26 03:07:36;;;;;;;0.20;0.20;;;23.40;88.80;;;;;;5074204;28;20274;-78
2022/05/26 03:10:04;;;;;;;1.55;0.10;;;23.40;88.80;;;;;;5074794;28;20203;-78
2022/05/26 03:12:34;;;;;;;0.10;0.10;;;23.40;88.80;;;;;;5074290;28;20231;-78
2022/05/26 03:15:01;;;;;;;4.10;0.30;;;23.40;88.80;;;;;;5074209;28;20294;-78
2022/05/26 03:17:28;;;;;;;1.10;0.35;;;23.40;88.80;;;;;;5074714;28;20196;-78
2022/05/26 03:19:55;;;;;;;1.75;0.30;;;23.40;88.80;;;;;;5074170;28;20638;-78
2022/05/26 03:22:23;;;;;;;0.55;0.30;;;23.40;88.90;;;;;;5074445;28;20283;-79
2022/05/26 03:24:51;;;;;;;0.52;0.20;;;23.40;88.90;;;;;;5075580;28;20290;-79
2022/05/26 03:27:18;;;;;;;2.75;0.40;;;23.40;88.90;;;;;;5074859;28;20253;-79
2022/05/26 03:29:45;;;;;;;4.60;0.55;;;23.40;89.20;;;;;;5074256;28;20199;-79
2022/05/26 03:32:12;;;;;;;0.88;0.20;;;23.40;89.40;;;;;;5073775;28;20289;-79
2022/05/26 03:42:54;;;;;;;2.03;0.50;;;23.40;90.10;;;;;;5074526;28;20214;-79
2022/05/26 03:45:24;;;;;;;1.08;0.22;;;23.40;90.10;;;;;;5074719;28;20199;-79
2022/05/26 03:47:51;;;;;;;0.20;0.20;;;23.40;90.50;;;;;;5074562;28;20196;-79
2022/05/26 03:50:18;;;;;;;0.30;0.30;;;23.40;90.10;;;;;;5074252;28;20203;-79
2022/05/26 03:52:46;;;;;;;2.38;0.55;;;23.40;90.20;;;;;;5074203;28;20233;-79
2022/05/26 03:55:13;;;;;;;2.88;0.38;;;23.40;90.20;;;;;;5074501;28;20222;-79
2022/05/26 03:57:40;;;;;;;2.70;0.30;;;23.40;90.20;;;;;;5074747;28;20204;-79
2022/05/26 04:00:09;;;;;;;0.60;0.20;;;23.40;90.30;;;;;;5074306;28;20253;-79
2022/05/26 04:02:36;;;;;;;1.10;0.30;;;23.40;90.30;;;;;;5073744;28;20725;-79
2022/05/26 04:05:03;;;;;;;1.05;0.20;;;23.40;90.30;;;;;;5074712;28;20204;-79
2022/05/26 04:07:30;;;;;;;2.70;0.40;;;23.40;90.30;;;;;;5074222;28;20209;-79
2022/05/26 04:09:58;;;;;;;1.65;0.30;;;23.40;90.40;;;;;;5074001;28;20234;-78
2022/05/26 04:12:25;;;;;;;0.73;0.22;;;23.40;90.40;;;;;;5073724;28;20223;-79
2022/05/26 04:14:53;;;;;;;0.40;0.35;;;23.40;90.40;;;;;;5073856;28;20623;-79
2022/05/26 04:17:19;;;;;;;1.75;0.30;;;23.40;90.40;;;;;;5073776;28;20230;-79
2022/05/26 04:19:46;;;;;;;0.40;0.20;;;23.40;90.40;;;;;;5073605;28;20291;-79
2022/05/26 04:22:16;;;;;;;1.00;0.20;;;23.40;90.40;;;;;;5073166;28;20223;-79
2022/05/26 04:24:43;;;;;;;0.82;0.20;;;23.40;90.40;;;;;;5074380;28;20199;-79
2022/05/26 04:27:11;;;;;;;1.80;0.20;;;23.40;90.80;;;;;;5077403;28;20286;-78
2022/05/26 04:29:38;;;;;;;0.28;0.28;;;23.40;90.50;;;;;;5077070;28;20290;-78
2022/05/26 04:32:06;;;;;;;2.65;0.30;;;23.40;90.50;;;;;;5077561;28;20210;-78
2022/05/26 04:34:33;;;;;;;0.28;0.28;;;23.40;90.50;;;;;;5077519;28;20589;-79
2022/05/26 04:37:00;;;;;;;0.70;0.30;;;23.40;90.60;;;;;;5077193;28;20206;-79
2022/05/26 04:39:27;;;;;;;1.08;0.22;;;23.40;90.60;;;;;;5077733;28;20290;-79
2022/05/26 04:41:57;;;;;;;1.75;0.20;;;23.40;90.60;;;;;;5078084;28;20199;-79
2022/05/26 04:44:29;;;;;;;2.15;0.40;;;23.40;90.60;;;;;;5077987;28;20415;-79
2022/05/26 04:46:56;;;;;;;0.30;0.30;;;23.40;90.70;;;;;;5077933;28;20553;-79
2022/05/26 04:49:23;;;;;;;0.43;0.43;;;23.30;90.70;;;;;;5077514;28;20294;-79
2022/05/26 04:51:50;;;;;;;0.30;0.30;;;23.40;90.80;;;;;;5077639;28;20235;-79
2022/05/26 04:54:17;;;;;;;2.55;0.30;;;23.40;90.80;;;;;;5077362;28;20310;-79
2022/05/26 04:56:44;;;;;;;0.28;0.28;;;23.40;90.90;;;;;;5077760;28;20218;-79
2022/05/26 04:59:11;;;;;;;2.83;0.40;;;23.40;91.20;;;;;;5077408;28;20274;-79
2022/05/26 05:01:39;;;;;;;0.38;0.28;;;23.40;90.90;;;;;;5077067;28;20202;-79
2022/05/26 05:04:06;;;;;;;1.58;0.30;;;23.40;90.90;;;;;;5077026;28;20310;-79
2022/05/26 05:06:33;;;;;;;0.30;0.30;;;23.40;91.00;;;;;;5076754;28;20242;-79
2022/05/26 05:09:00;;;;;;;0.22;0.22;;;23.40;91.00;;;;;;5077091;28;20203;-79
2022/05/26 05:11:28;;;;;;;1.85;0.60;;;23.40;91.00;;;;;;5077120;28;20642;-79
2022/05/26 05:13:55;;;;;;;1.45;0.28;;;23.40;91.00;;;;;;5077212;28;20225;-79
2022/05/26 05:16:27;;;;;;;1.10;0.20;;;23.40;91.00;;;;;;5076771;28;20334;-79
2022/05/26 05:18:55;;;;;;;1.85;0.30;;;23.40;91.00;;;;;;5076371;28;20551;-79
2022/05/26 05:21:27;;;;;;;0.68;0.20;;;23.40;91.10;;;;;;5076957;28;20570;-79
2022/05/26 05:23:58;;;;;;;2.20;0.32;;;23.40;91.10;;;;;;5077460;28;20223;-80
2022/05/26 05:26:28;;;;;;;2.83;0.50;;;23.30;91.10;;;;;;5077273;28;20600;-79
2022/05/26 05:28:58;;;;;;;3.13;0.38;;;23.40;91.10;;;;;;5077029;28;20314;-79
2022/05/26 05:31:30;;;;;;;0.80;0.30;;;23.30;91.10;;;;;;5075775;28;20188;-79
2022/05/26 05:34:03;;;;;;;1.75;0.20;;;23.30;91.10;;;;;;5075884;28;20318;-79
2022/05/26 05:36:34;;;;;;;1.92;0.57;;;23.40;91.20;;;;;;5074294;28;20643;-79
2022/05/26 05:39:03;;;;;;;0.30;0.30;;;23.30;91.20;;;;;;5075715;28;20188;-79
2022/05/26 05:41:32;;;;;;;0.35;0.35;;;23.30;91.20;;;;;;5075351;28;20234;-79
2022/05/26 05:44:00;;;;;;;1.17;0.40;;;23.30;91.20;;;;;;5075337;28;20299;-79
2022/05/26 05:46:33;;;;;;;0.30;0.20;;;23.30;91.20;;;;;;5075891;28;20238;-79
2022/05/26 05:49:04;;;;;;;0.63;0.32;;;23.30;91.30;;;;;;5075282;28;20290;-79
2022/05/26 05:51:32;;;;;;;4.18;0.38;;;23.30;91.30;;;;;;5074968;28;20524;-79
2022/05/26 05:53:59;;;;;;;0.20;0.20;;;23.30;91.30;;;;;;5075149;28;20231;-79
2022/05/26 05:56:26;;;;;;;1.67;0.40;;;23.30;91.30;;;;;;5075549;28;20214;-78
2022/05/26 05:58:53;;;;;;;0.77;0.38;;;23.30;91.30;;;;;;5075411;28;20210;-78
2022/05/26 06:01:20;;;;;;;0.40;0.30;;;23.30;91.30;;;;;;5075459;28;20199;-82
2022/05/26 06:03:47;;;;;;;3.35;0.40;;;23.30;91.40;;;;;;5075639;28;20268;-83
2022/05/26 06:06:15;;;;;;;0.80;0.47;;;23.30;91.40;;;;;;5078914;28;20203;-83
2022/05/26 06:08:42;;;;;;;0.45;0.45;;;23.40;91.60;;;;;;5077010;28;20290;-84
2022/05/26 06:11:09;;;;;;;1.38;0.50;;;23.30;91.60;;;;;;5076898;28;20207;-82
2022/05/26 06:13:36;;;;;;;0.88;0.20;;;23.40;91.70;;;;;;5077169;28;20249;-83
2022/05/26 06:16:03;;;;;;;3.47;0.32;;;23.40;91.70;;;;;;5075911;28;20242;-83
2022/05/26 06:18:32;;;;;;;7.85;0.55;;;23.40;91.70;;;;;;5076858;28;20291;-82
2022/05/26 06:21:03;;;;;;;0.38;0.30;;;23.40;91.90;;;;;;5076915;28;20203;-82
2022/05/26 06:23:32;;;;;;;2.83;0.38;;;23.40;91.90;;;;;;5076312;28;20278;-82
2022/05/26 06:25:59;;;;;;;2.65;0.30;;;23.40;92.00;;;;;;5075586;28;20678;-82
2022/05/26 06:31:11;;;;;;;2.78;0.70;;;23.40;92.00;;;;;;5075688;28;20681;-81
2022/05/26 06:39:08;;;;;;;2.00;0.40;;;23.40;92.20;;;;;;5076454;28;20175;-82
2022/05/26 06:44:20;;;;;;;2.20;0.52;;;23.40;92.40;;;;;;5077947;28;20219;-82
2022/05/26 06:46:48;;;;;;;1.85;0.40;;;23.30;92.40;;;;;;5081194;28;20260;-83
2022/05/26 06:49:15;;;;;;;1.25;0.40;;;23.40;92.40;;;;;;5080486;28;20237;-82
2022/05/26 06:51:43;;;;;;;1.77;0.20;;;23.40;92.80;;;;;;5080818;28;20655;-82
2022/05/26 06:54:12;;;;;;;2.38;0.40;;;23.40;92.50;;;;;;5080410;28;20334;-82
2022/05/26 06:56:39;;;;;;;3.00;0.43;;;23.40;92.50;;;;;;5079907;28;20239;-82
2022/05/26 06:59:07;;;;;;;0.50;0.50;;;23.40;92.60;;;;;;5079625;28;20227;-82
2022/05/26 07:01:35;;;;;;;2.70;0.30;;;23.40;92.60;;;;;;5079905;28;20226;-82
2022/05/26 07:04:02;;;;;;;3.65;0.65;;;23.40;93.00;;;;;;5080351;28;20703;-82
2022/05/26 07:06:30;;;;;;;0.52;0.15;;;23.40;92.70;;;;;;5082082;28;20580;-80
2022/05/26 07:08:58;;;;;;;1.25;0.40;;;23.40;92.80;;;;;;5082801;28;20633;-81
2022/05/26 07:11:27;;;;;;;0.30;0.30;;;23.40;92.80;;;;;;5083134;28;20231;-80
2022/05/26 07:13:54;;;;;;;0.38;0.20;;;23.40;92.80;;;;;;5083035;28;20219;-81
2022/05/26 07:16:22;;;;;;;1.02;0.30;;;23.40;92.90;;;;;;5084226;28;20291;-78
2022/05/26 07:18:50;;;;;;;0.43;0.20;;;23.40;92.90;;;;;;5083482;28;20199;-81
2022/05/26 07:21:17;;;;;;;0.28;0.20;;;23.40;93.00;;;;;;5081850;28;20257;-79
2022/05/26 07:23:44;;;;;;;2.03;0.20;;;23.40;93.10;;;;;;5075056;28;20641;-78
2022/05/26 07:26:14;;;;;;;0.30;0.20;;;23.40;93.10;;;;;;5074401;28;20200;-78
2022/05/26 07:28:42;;;;;;;0.57;0.20;;;23.40;93.10;;;;;;5076258;28;20215;-79
2022/05/26 07:31:11;;;;;;;0.20;0.20;;;23.40;93.20;;;;;;5074674;28;20199;-78
2022/05/26 07:33:38;;;;;;;1.67;0.10;;;23.40;93.20;;;;;;5075581;28;20277;-80
2022/05/26 07:36:08;;;;;;;3.30;0.45;;;23.40;93.30;;;;;;5073735;28;20250;-79
2022/05/26 07:41:24;;;;;;;0.30;0.30;;;23.40;93.40;;;;;;5073495;28;20257;-78
2022/05/26 07:43:54;;;;;;;2.70;0.20;;;23.40;93.50;;;;;;5073334;28;20219;-78
2022/05/26 07:46:23;;;;;;;0.20;0.20;;;23.40;93.60;;;;;;5073089;28;20649;-78
2022/05/26 07:48:50;;;;;;;4.70;0.60;;;23.40;93.70;;;;;;5074978;28;20199;-79
2022/05/26 07:51:19;;;;;;;6.28;0.60;;;23.40;93.80;;;;;;5076564;28;20239;-80
2022/05/26 07:53:46;;;;;;;5.30;0.40;;;23.40;93.70;;;;;;5078135;28;20234;-80
2022/05/26 07:56:13;;;;;;;1.38;0.50;;;23.40;93.10;;;;;;5076296;28;20282;-78
2022/05/26 07:58:40;;;;;;;6.80;0.90;;;23.30;92.40;;;;;;5074467;28;20206;-76
2022/05/26 08:01:08;;;;;;;6.28;0.60;;;23.20;92.10;;;;;;5077587;28;20203;-77
2022/05/26 08:03:37;;;;;;;10.77;0.60;;;23.20;92.00;;;;;;5076605;28;20231;-76
2022/05/26 08:06:04;;;;;;;8.93;0.90;;;23.20;91.90;;;;;;5076394;28;20235;-76
2022/05/26 08:08:32;;;;;;;10.00;1.02;;;23.10;91.90;;;;;;5078235;28;20567;-78
2022/05/26 08:10:59;;;;;;;343.77;103.72;;;23.20;91.90;;;;;;5077063;28;20308;-77
2022/05/26 08:13:26;;;;;;;181.63;52.70;;;23.10;91.50;;;;;;5077087;28;20215;-76
2022/05/26 08:15:53;;;;;;;70.50;24.20;;;23.10;91.10;;;;;;5077180;28;20195;-77
2022/05/26 08:18:21;;;;;;;40.38;13.07;;;23.10;90.80;;;;;;5076545;28;20196;-76
2022/05/26 08:20:48;;;;;;;27.20;8.88;;;23.10;90.50;;;;;;5076428;28;20726;-76
2022/05/26 08:23:15;;;;;;;19.10;6.45;;;23.10;90.20;;;;;;5076906;28;20219;-76
2022/05/26 08:25:42;;;;;;;14.32;4.75;;;23.10;89.60;;;;;;5076817;28;20231;-76
2022/05/26 08:28:09;;;;;;;9.93;3.95;;;23.10;89.60;;;;;;5076667;28;20234;-76
2022/05/26 08:30:35;;;;;;;8.65;3.28;;;23.10;88.30;;;;;;5076476;28;20573;-77
2022/05/26 08:33:02;;;;;;;6.40;2.92;;;23.10;87.30;;;;;;5076220;28;20586;-76
2022/05/26 08:35:31;;;;;;;8.18;2.78;;;23.10;86.40;;;;;;5076802;28;20234;-75
2022/05/26 08:37:58;;;;;;;6.35;1.88;;;23.10;85.70;;;;;;5076495;28;20208;-76
2022/05/26 08:40:35;;;;;;;9.40;1.98;;;23.00;84.80;;;;;;5076566;28;20290;-77
2022/05/26 08:43:04;;;;;;;5.88;1.70;;;23.10;84.00;;;;;;5077588;28;20226;-79
2022/05/26 08:45:33;;;;;;;8.13;2.28;;;23.10;83.40;;;;;;5077440;28;20287;-77
2022/05/26 08:48:01;;;;;;;7.95;2.08;;;23.10;82.80;;;;;;5079413;28;20200;-78
2022/05/26 08:50:32;;;;;;;1.63;1.00;;;23.10;82.30;;;;;;5079356;28;20631;-78
2022/05/26 08:53:04;;;;;;;5.68;1.90;;;23.10;81.70;;;;;;5080863;28;20777;-78
2022/05/26 08:55:35;;;;;;;3.53;1.25;;;23.10;81.10;;;;;;5079026;28;20207;-78
2022/05/26 08:58:06;;;;;;;8.38;1.83;;;23.10;80.40;;;;;;5078748;28;20271;-78
2022/05/26 09:00:35;;;;;;;2.47;1.20;;;23.10;79.80;;;;;;5081222;28;20179;-78
2022/05/26 09:03:03;;;;;;;1.05;1.00;;;23.10;79.20;;;;;;5077985;28;20231;-78
2022/05/26 09:05:41;;;;;;;2.40;1.65;;;23.10;78.70;;;;;;5077781;28;20195;-78
2022/05/26 09:13:58;;;;;;;9.73;1.23;;;23.10;77.00;;;;;;5075493;28;20238;-77
2022/05/26 09:16:26;;;;;;;6.43;2.00;;;23.10;76.70;;;;;;5075811;28;20206;-77
2022/05/26 09:19:10;;;;;;;13.18;3.70;;;23.10;76.00;;;;;;5075877;28;20294;-77
2022/05/26 09:21:40;;;;;;;13.85;3.78;;;23.10;75.20;;;;;;5078059;28;20198;-79
2022/05/26 09:24:18;;;;;;;15.05;2.60;;;23.10;74.80;;;;;;5080627;28;20283;-77
2022/05/26 09:26:47;;;;;;;12.23;2.50;;;23.10;73.90;;;;;;5079520;28;20184;-78
2022/05/26 09:29:15;;;;;;;10.80;2.40;;;23.00;73.20;;;;;;5078572;28;20206;-78
2022/05/26 09:31:47;;;;;;;46.30;3.58;;;23.00;72.80;;;;;;5078755;28;20202;-78
2022/05/26 09:34:19;;;;;;;43.30;3.65;;;23.00;72.30;;;;;;5078568;28;20315;-79
2022/05/26 09:36:49;;;;;;;18.40;3.25;;;23.10;72.10;;;;;;5080864;28;20251;-81
2022/05/26 09:39:21;;;;;;;16.92;3.00;;;23.10;71.90;;;;;;5079603;28;20262;-79
2022/05/26 09:41:50;;;;;;;22.30;3.78;;;23.10;71.60;;;;;;5077096;28;20286;-77
2022/05/26 09:44:36;;;;;;;24.98;3.25;;;23.10;71.10;;;;;;5078941;28;20585;-79
2022/05/26 09:47:11;;;;;;;16.27;2.92;;;23.20;71.20;;;;;;5078585;28;20180;-77
2022/05/26 09:49:42;;;;;;;15.02;3.20;;;23.20;71.20;;;;;;5075313;28;20195;-76
2022/05/26 09:52:17;;;;;;;23.70;3.28;;;23.10;70.70;;;;;;5075128;28;20186;-76
2022/05/26 09:54:45;;;;;;;17.67;3.17;;;23.20;71.00;;;;;;5075056;28;20230;-76
2022/05/26 09:57:17;;;;;;;23.08;2.72;;;23.20;70.00;;;;;;5074987;28;20222;-76
2022/05/26 09:59:45;;;;;;;13.85;2.72;;;23.20;69.70;;;;;;5074917;28;20223;-76
2022/05/26 10:02:17;;;;;;;15.40;3.10;;;23.20;69.50;;;;;;5074691;28;20211;-76
2022/05/26 10:04:57;;;;;;;15.13;2.90;;;23.30;69.30;;;;;;5074949;28;20553;-76
2022/05/26 10:07:36;;;;;;;18.48;2.50;;;23.30;68.90;;;;;;5074780;28;20188;-76
2022/05/26 10:10:10;;;;;;;10.68;2.88;;;23.30;68.80;;;;;;5074813;28;20605;-76
2022/05/26 10:12:47;;;;;;;12.57;2.80;;;23.30;68.60;;;;;;5074326;28;20223;-76
2022/05/26 10:15:23;;;;;;;15.48;2.65;;;23.30;68.30;;;;;;5074592;28;20203;-76
2022/05/26 10:18:15;;;;;;;8.27;2.33;;;23.30;68.10;;;;;;5074289;28;20276;-77
2022/05/26 10:20:50;;;;;;;11.25;2.47;;;23.30;67.70;;;;;;5074601;28;20199;-77
2022/05/26 10:23:36;;;;;;;9.63;2.05;;;23.30;67.70;;;;;;5074315;28;20223;-77
2022/05/26 10:26:12;;;;;;;8.18;2.53;;;23.30;67.40;;;;;;5074232;28;20542;-77
2022/05/26 10:29:20;;;;;;;7.25;2.00;;;23.30;67.40;;;;;;5074497;28;20187;-77
2022/05/26 10:32:02;;;;;;;10.68;2.25;;;23.40;67.20;;;;;;4992880;28;20206;-76
2022/05/26 10:34:47;;;;;;;11.32;2.30;;;23.30;67.00;;;;;;4992690;28;20316;-76
2022/05/26 10:37:29;;;;;;;6.63;1.92;;;23.40;66.90;;;;;;5047593;28;20222;-76
2022/05/26 10:40:14;;;;;;;14.15;2.63;;;23.40;66.80;;;;;;5074388;28;20188;-76
2022/05/26 10:42:48;;;;;;;11.48;2.45;;;23.40;66.60;;;;;;5074166;28;20215;-76
2022/05/26 10:45:19;;;;;;;7.95;2.15;;;23.40;66.60;;;;;;5074172;28;20176;-76
2022/05/26 10:47:56;;;;;;;5.38;1.92;;;23.30;66.30;;;;;;5074046;28;20242;-76
2022/05/26 10:50:29;;;;;;;6.80;1.90;;;23.40;66.20;;;;;;5074001;28;20179;-77
2022/05/26 10:53:03;;;;;;;11.32;2.60;;;23.40;66.10;;;;;;5073864;28;20219;-76
2022/05/26 10:55:38;;;;;;;4.50;1.85;;;23.40;66.00;;;;;;5073829;28;20217;-77
2022/05/26 10:58:11;;;;;;;4.07;1.58;;;23.40;65.80;;;;;;5073927;28;20194;-77
2022/05/26 11:00:38;;;;;;;6.10;2.38;;;23.40;66.50;;;;;;5073983;28;20192;-79
2022/05/26 11:03:13;;;;;;;8.15;1.73;;;23.40;65.50;;;;;;5073659;28;20258;-77
2022/05/26 11:05:45;;;;;;;6.90;1.95;;;23.40;65.40;;;;;;5073903;28;20187;-76
2022/05/26 11:08:34;;;;;;;7.35;2.20;;;23.40;65.40;;;;;;5073814;28;20562;-76
2022/05/26 11:11:07;;;;;;;7.18;1.95;;;23.50;65.50;;;;;;5073869;28;20602;-77
2022/05/26 11:13:46;;;;;;;6.55;2.13;;;23.40;65.40;;;;;;5073757;28;20216;-76
2022/05/26 11:19:26;;;;;;;6.22;1.90;;;23.40;65.40;;;;;;5074128;28;20650;-76
2022/05/26 11:21:55;;;;;;;5.85;1.67;;;23.50;65.50;;;;;;5074181;28;20279;-76
2022/05/26 11:24:23;;;;;;;8.00;2.00;;;23.40;65.40;;;;;;5073554;28;20223;-76
2022/05/26 11:26:57;;;;;;;2.47;1.10;;;23.40;65.40;;;;;;5073783;28;20570;-76
2022/05/26 11:29:29;;;;;;;6.32;1.90;;;23.50;65.30;;;;;;5073832;28;20194;-76
2022/05/26 11:37:57;;;;;;;7.45;1.70;;;23.40;65.00;;;;;;5078854;28;20226;-76
2022/05/26 11:40:31;;;;;;;3.92;2.03;;;23.50;65.00;;;;;;5083769;28;20271;-77
2022/05/26 11:43:01;;;;;;;6.55;2.05;;;23.50;65.00;;;;;;5084780;28;20720;-77
2022/05/26 11:45:32;;;;;;;3.95;1.98;;;23.50;64.90;;;;;;5085870;28;20255;-77
2022/05/26 11:48:00;;;;;;;7.65;2.03;;;23.50;64.80;;;;;;5085111;28;20183;-77
2022/05/26 11:50:44;;;;;;;4.82;1.52;;;23.50;64.70;;;;;;5086235;28;20219;-77
2022/05/26 11:53:14;;;;;;;2.45;1.63;;;23.50;64.70;;;;;;5083887;28;20644;-76
2022/05/26 11:55:53;;;;;;;6.93;1.60;;;23.50;64.70;;;;;;5077666;28;20207;-76
2022/05/26 11:58:32;;;;;;;8.40;1.50;;;23.50;64.50;;;;;;5077385;28;20221;-76
2022/05/26 12:01:36;;;;;;;5.57;1.75;;;23.50;64.50;;;;;;5076843;28;20608;-76
2022/05/26 12:04:25;;;;;;;3.03;2.05;;;23.50;64.30;;;;;;5035461;28;20227;-77
2022/05/26 12:06:59;;;;;;;7.13;1.63;;;23.50;64.50;;;;;;5076932;28;20234;-77
2022/05/26 12:09:34;;;;;;;4.68;1.65;;;23.50;64.60;;;;;;5076728;28;20199;-77
2022/05/26 12:12:03;;;;;;;3.65;1.20;;;23.50;64.50;;;;;;5076730;28;20712;-77
2022/05/26 12:14:35;;;;;;;6.93;1.60;;;23.50;64.50;;;;;;5076838;28;20234;-77
2022/05/26 12:17:34;;;;;;;4.03;1.50;;;23.50;64.50;;;;;;5076537;28;20670;-77
2022/05/26 12:20:06;;;;;;;5.22;1.60;;;23.50;64.30;;;;;;5076510;28;20681;-77
2022/05/26 12:22:36;;;;;;;8.23;2.00;;;23.50;64.50;;;;;;5076392;28;20793;-77
2022/05/26 12:25:20;;;;;;;5.88;1.80;;;23.50;64.40;;;;;;5076737;28;20546;-77
2022/05/26 12:28:28;;;;;;;7.28;1.92;;;23.50;64.20;;;;;;5076750;28;20187;-77
2022/05/26 12:31:14;;;;;;;8.07;2.13;;;23.50;64.10;;;;;;5076321;28;20187;-77
2022/05/26 12:34:08;;;;;;;3.17;1.40;;;23.50;64.20;;;;;;5076790;28;20223;-77
2022/05/26 12:36:58;;;;;;;3.53;1.65;;;23.50;64.10;;;;;;5076560;28;20211;-75
2022/05/26 12:39:48;;;;;;;6.75;2.10;;;23.50;64.10;;;;;;5076490;28;20640;-76
2022/05/26 12:42:26;;;;;;;9.15;1.70;;;23.50;64.30;;;;;;5076446;28;20188;-76
2022/05/26 12:45:10;;;;;;;3.65;1.30;;;23.50;64.30;;;;;;5076353;28;20191;-76
2022/05/26 12:48:06;;;;;;;3.97;1.30;;;23.50;64.20;;;;;;5076099;28;20187;-76
2022/05/26 12:50:40;;;;;;;13.50;1.75;;;23.50;64.10;;;;;;5073052;28;20286;-76
2022/05/26 12:53:14;;;;;;;6.78;1.80;;;23.50;64.20;;;;;;5076235;28;20230;-76
2022/05/26 12:55:46;;;;;;;7.57;1.42;;;23.50;64.20;;;;;;5076096;28;20276;-76
2022/05/26 12:58:17;;;;;;;4.35;1.17;;;23.50;64.20;;;;;;5076155;28;20612;-76
2022/05/26 13:00:46;;;;;;;4.07;1.50;;;23.50;64.20;;;;;;5076062;28;20202;-76
2022/05/26 13:03:24;;;;;;;6.45;1.58;;;23.50;64.20;;;;;;5075528;28;20237;-76
2022/05/26 13:05:59;;;;;;;12.35;1.50;;;23.50;64.10;;;;;;5076043;28;20183;-76
2022/05/26 13:08:29;;;;;;;11.00;1.83;;;23.50;64.10;;;;;;5075981;28;20281;-76
2022/05/26 13:10:58;;;;;;;7.75;1.48;;;23.50;64.10;;;;;;5076128;28;20195;-76
2022/05/26 13:13:32;;;;;;;7.43;1.50;;;23.50;64.10;;;;;;5075474;28;20702;-76
2022/05/26 13:16:21;;;;;;;4.72;1.85;;;23.50;64.10;;;;;;5075753;28;20209;-76
2022/05/26 13:18:50;;;;;;;6.47;1.40;;;23.60;64.10;;;;;;5075750;28;20188;-76
2022/05/26 13:21:18;;;;;;;4.95;1.70;;;23.50;64.20;;;;;;5075388;28;20199;-76
2022/05/26 13:23:45;;;;;;;5.55;1.30;;;23.50;64.10;;;;;;5075589;28;20219;-76
2022/05/26 13:26:13;;;;;;;4.82;1.42;;;23.50;64.20;;;;;;5075589;28;20202;-76
2022/05/26 13:28:46;;;;;;;5.38;1.60;;;23.60;64.20;;;;;;5075620;28;20238;-76
2022/05/26 13:34:03;;;;;;;5.60;1.23;;;23.50;64.10;;;;;;5075327;28;20776;-76
2022/05/26 13:36:33;;;;;;;6.03;1.77;;;23.60;64.30;;;;;;5075413;28;20301;-76
2022/05/26 13:39:05;;;;;;;5.80;1.52;;;23.60;64.30;;;;;;5075607;28;20662;-76
2022/05/26 13:41:33;;;;;;;9.38;1.50;;;23.60;64.30;;;;;;5075493;28;20179;-76
2022/05/26 13:44:04;;;;;;;4.60;1.15;;;23.60;64.40;;;;;;5075357;28;20325;-76
2022/05/26 13:46:33;;;;;;;6.32;1.50;;;23.60;64.30;;;;;;5075278;28;20265;-76
2022/05/26 13:49:14;;;;;;;6.85;1.45;;;23.60;64.30;;;;;;5075114;28;20199;-76
2022/05/26 13:51:45;;;;;;;4.70;1.27;;;23.60;64.30;;;;;;5074985;28;20601;-76